Embarrass, Wisconsin
Current Conditions -  °F | °C
As of 12:40 PM on Wednesday 26 Nov 2014 (Local Time) from KCLI Reporting Station
Overcast Overcast  
Wind Chill: -6°   Ceiling: 1000
Heat Index: -6°   Visibility: 7mi
Dew Point: -7°   Wind: 0mph
Humidity: 93%   Direction: NA
Pressure: 30.15"   Gusts: NA
Location:  44.67°N, 88.71°W
Report Text: KCLI 261840Z AUTO 00000KT 7SM OVC010 M06/M07 A3015 RMK AO2
Loading
Personal Weather Stations






























Interactive Weather Map New forecast layout! Learn more

10-Day Weather Forecast

Advertisements
Track Severe Weather on mobile